Minot International Airport
KMOT : rendu visible

Aérodrome :











RETROUVEZ-NOUS SUR...

 
LOGIN :

S'inscrire | Disclaimer

   EN    FR    IT 

 









Légende :    VFR   VFR Marginal   IFR   IFR Intensif   IFR Très Intensif
Visi : 
Plafond : 
>= 8 km
>= 3000ft
5 à 8 km
1000 à 3000 ft
1500m à 5 km
500 à 1000 ft
800 à 1500m
200 à 500 ft
< 800m
< 200 ft
Symboles :   Orages  Brouillard  Fortes neiges  Fortes précipitations  Vent > 20 kt






- Altitude de l'aérodrome : 1716 ft
- Code IATA : MOT


KMOT - Minot International

DERNIER METAR :
  • 081254Z 26017KT 10SM CLR 01/M05 A2997 RMK AO2 SLP162 T00061050

METARs EXPIRÉS :
  • 081154Z AUTO 27017G23KT 10SM CLR 00/M04 A2995 RMK AO2 SLP156 T00001044 10028 20000 53015
  • 081054Z AUTO 25011KT 10SM CLR 00/M04 A2994 RMK AO2 SLP149 T00001044
  • 080954Z AUTO 26012KT 10SM CLR 01/M04 A2991 RMK AO2 SLP141 T00061039

TAF KMOT
Valide du 08 à 12h jusqu'au 09 à 12h UTC


081124Z 0812/0912 28016G24KT P6SM FEW040 FEW120
FM081700 31026G40KT P6SM SCT045 BKN070
FM090100 31017G25KT P6SM SCT120



MET'MAP, la Météo Aéronautique d'un coup d'oeil ! - Copyright ORBIFLY Décembre 2007 - Disclaimer

ORBIFLY MET'MAP TEAM :

Programmation & Développement : Alexandra Zaïnal
Sur une idée originale de : Baudouin d'Aumeries
Assistance à la programmation : Marc-Olivier Méhu
Soutien technique & logistique : Manuel Goepfert

Contact : metmap@orbifly.com




SOURCES & CREDITS :

   NOAA       Earth
Advisory